Terminal Aerodrome Forecast
Issued by NWS

Home | Current Version | Previous Version | Text Only | Print | Product List | Glossary On
Versions: 1 2 3 4 5 6 7 8 9 10 11 12 13 14 15 16 17 18 19
000
FTUS44 KMAF 222300
TAFPEQ
TAF
KPEQ 222320Z 2300/2324 12014KT P6SM BKN080
      TEMPO 2300/2303 VRB15G25KT 5SM TSRA BKN080CB
     FM230300 12008KT P6SM BKN120=

USA.gov is the U.S. government's official web portal to all federal, state and local government web resources and services.